CheckWX is a tool to help pilots better visualize weather data.  It is not intended as a substitute for an official pre-flight weather briefing.

05:23:35 UTC

PHJR TAF
Kalaeloa (John Rodgers Field) Airport
Kapolei, Hawaii, USA
PHJR 232342Z 2400/2424 20008KT P6SM FEW025 FEW045 FM240400 VRB03KT P6SM FEW025 FEW040 FM242100 04009KT P6SM FEW035

Feb-24@
00:00 UTC

Feb-24 @ 00:00 UTC

Feb-24@
04:00 UTC

Feb-24 @ 04:00 UTC

PHJR 232342Z 2400/2424 20008KT P6SM FEW025 FEW045

Expired

Wind
  • 200° at 8 KTS
Cloud Levels
  • Few at 2,500' AGL
  • Few at 4,500' AGL

Feb-24@
04:00 UTC

Feb-24 @ 04:00 UTC

Feb-24@
21:00 UTC

Feb-24 @ 21:00 UTC

FM240400 VRB03KT P6SM FEW025 FEW040

From

From Standard forecast or significant change

Wind
  • Variable at 3 KTS
Cloud Levels
  • Few at 2,500' AGL
  • Few at 4,000' AGL

Feb-24@
21:00 UTC

Feb-24 @ 21:00 UTC

Feb-25@
00:00 UTC

Feb-25 @ 00:00 UTC

FM242100 04009KT P6SM FEW035

From

From Standard forecast or significant change

Wind
  • 040° at 9 KTS
Cloud Levels
  • Few at 3,500' AGL